sensor_id;sensor_type;location;lat;lon;timestamp;pressure;altitude;pressure_sealevel;temperature;humidity
45793;BME280;31495;42.740;22.908;2023-03-18T00:00:46;93443.50;;;-0.39;73.33
45793;BME280;31495;42.740;22.908;2023-03-18T00:01:46;93397.00;;;-0.68;73.29
45793;BME280;31495;42.740;22.908;2023-03-18T00:02:46;93415.56;;;-0.58;73.02
45793;BME280;31495;42.740;22.908;2023-03-18T00:03:47;93441.75;;;-0.38;72.94
45793;BME280;31495;42.740;22.908;2023-03-18T00:04:47;93416.91;;;-0.54;73.06
45793;BME280;31495;42.740;22.908;2023-03-18T00:05:46;93422.78;;;-0.53;73.05
45793;BME280;31495;42.740;22.908;2023-03-18T00:06:45;93458.22;;;-0.23;73.21
45793;BME280;31495;42.740;22.908;2023-03-18T00:07:45;93421.03;;;-0.53;73.05
45793;BME280;31495;42.740;22.908;2023-03-18T00:08:47;93457.97;;;-0.29;73.05
45793;BME280;31495;42.740;22.908;2023-03-18T00:09:47;93457.97;;;-0.29;73.10
45793;BME280;31495;42.740;22.908;2023-03-18T00:10:49;93459.69;;;-0.30;72.91
45793;BME280;31495;42.740;22.908;2023-03-18T00:11:49;93450.22;;;-0.38;72.88
45793;BME280;31495;42.740;22.908;2023-03-18T00:12:48;93460.06;;;-0.25;72.81
45793;BME280;31495;42.740;22.908;2023-03-18T00:13:47;93417.69;;;-0.53;72.36
45793;BME280;31495;42.740;22.908;2023-03-18T00:14:47;93435.88;;;-0.39;72.53
45793;BME280;31495;42.740;22.908;2023-03-18T00:15:49;93461.94;;;-0.27;72.08
45793;BME280;31495;42.740;22.908;2023-03-18T00:16:49;93445.91;;;-0.37;72.03
45793;BME280;31495;42.740;22.908;2023-03-18T00:17:49;93399.41;;;-0.67;72.08
45793;BME280;31495;42.740;22.908;2023-03-18T00:18:48;93420.25;;;-0.53;71.96
45793;BME280;31495;42.740;22.908;2023-03-18T00:19:48;93397.78;;;-0.68;72.48
45793;BME280;31495;42.740;22.908;2023-03-18T00:20:48;93410.34;;;-0.57;72.09
45793;BME280;31495;42.740;22.908;2023-03-18T00:21:48;93452.06;;;-0.30;71.88
45793;BME280;31495;42.740;22.908;2023-03-18T00:22:47;93447.38;;;-0.34;71.72
45793;BME280;31495;42.740;22.908;2023-03-18T00:23:47;93404.22;;;-0.64;71.75
45793;BME280;31495;42.740;22.908;2023-03-18T00:24:47;93452.06;;;-0.30;71.95
45793;BME280;31495;42.740;22.908;2023-03-18T00:25:47;93400.72;;;-0.63;71.85
45793;BME280;31495;42.740;22.908;2023-03-18T00:26:48;93419.56;;;-0.46;71.79
45793;BME280;31495;42.740;22.908;2023-03-18T00:27:48;93411.00;;;-0.54;71.72
45793;BME280;31495;42.740;22.908;2023-03-18T00:28:48;93406.59;;;-0.52;71.78
45793;BME280;31495;42.740;22.908;2023-03-18T00:29:48;93429.44;;;-0.33;71.50
45793;BME280;31495;42.740;22.908;2023-03-18T00:30:49;93443.09;;;-0.34;71.54
45793;BME280;31495;42.740;22.908;2023-03-18T00:31:49;93445.78;;;-0.35;71.92
45793;BME280;31495;42.740;22.908;2023-03-18T00:32:49;93411.69;;;-0.62;71.64
45793;BME280;31495;42.740;22.908;2023-03-18T00:33:49;93443.63;;;-0.40;71.78
45793;BME280;31495;42.740;22.908;2023-03-18T00:34:48;93409.03;;;-0.61;71.57
45793;BME280;31495;42.740;22.908;2023-03-18T00:35:48;93412.22;;;-0.49;71.74
45793;BME280;31495;42.740;22.908;2023-03-18T00:36:49;93431.06;;;-0.42;71.73
45793;BME280;31495;42.740;22.908;2023-03-18T00:37:55;93428.25;;;-0.48;71.69
45793;BME280;31495;42.740;22.908;2023-03-18T00:38:56;93378.00;;;-0.84;71.67
45793;BME280;31495;42.740;22.908;2023-03-18T00:40:01;93387.50;;;-0.76;71.53
45793;BME280;31495;42.740;22.908;2023-03-18T00:41:04;93427.72;;;-0.42;71.69
45793;BME280;31495;42.740;22.908;2023-03-18T00:42:10;93402.84;;;-0.58;71.54
45793;BME280;31495;42.740;22.908;2023-03-18T00:43:11;93429.72;;;-0.36;71.37
45793;BME280;31495;42.740;22.908;2023-03-18T00:44:11;93409.81;;;-0.50;71.46
45793;BME280;31495;42.740;22.908;2023-03-18T00:45:14;93434.00;;;-0.46;71.59
45793;BME280;31495;42.740;22.908;2023-03-18T00:46:35;93409.16;;;-0.72;71.52
45793;BME280;31495;42.740;22.908;2023-03-18T00:47:35;93386.69;;;-0.77;71.67
45793;BME280;31495;42.740;22.908;2023-03-18T00:48:36;93396.03;;;-0.67;71.82
45793;BME280;31495;42.740;22.908;2023-03-18T00:49:36;93406.47;;;-0.61;71.77
45793;BME280;31495;42.740;22.908;2023-03-18T00:50:36;93406.31;;;-0.59;71.98
45793;BME280;31495;42.740;22.908;2023-03-18T00:51:36;93400.47;;;-0.79;71.99
45793;BME280;31495;42.740;22.908;2023-03-18T00:52:36;93386.56;;;-0.95;72.13
45793;BME280;31495;42.740;22.908;2023-03-18T00:53:36;93371.06;;;-1.01;72.70
45793;BME280;31495;42.740;22.908;2023-03-18T00:54:36;93426.00;;;-0.71;72.82
45793;BME280;31495;42.740;22.908;2023-03-18T00:55:36;93421.56;;;-0.69;72.75
45793;BME280;31495;42.740;22.908;2023-03-18T00:56:36;93419.72;;;-0.57;72.21
45793;BME280;31495;42.740;22.908;2023-03-18T00:57:38;93405.53;;;-0.69;72.20
45793;BME280;31495;42.740;22.908;2023-03-18T00:58:38;93404.22;;;-0.73;72.38
45793;BME280;31495;42.740;22.908;2023-03-18T00:59:39;93414.63;;;-0.67;72.65
45793;BME280;31495;42.740;22.908;2023-03-18T01:00:39;93393.09;;;-0.82;72.60
45793;BME280;31495;42.740;22.908;2023-03-18T01:01:39;93369.84;;;-0.97;72.84
45793;BME280;31495;42.740;22.908;2023-03-18T01:02:39;93381.75;;;-0.88;72.76
45793;BME280;31495;42.740;22.908;2023-03-18T01:03:41;93395.78;;;-0.74;72.28
45793;BME280;31495;42.740;22.908;2023-03-18T01:04:41;93405.53;;;-0.69;72.36
45793;BME280;31495;42.740;22.908;2023-03-18T01:05:40;93353.81;;;-0.98;72.31
45793;BME280;31495;42.740;22.908;2023-03-18T01:06:40;93363.84;;;-0.96;71.90
45793;BME280;31495;42.740;22.908;2023-03-18T01:07:40;93410.88;;;-0.72;72.32
45793;BME280;31495;42.740;22.908;2023-03-18T01:08:40;93389.50;;;-0.89;72.12
45793;BME280;31495;42.740;22.908;2023-03-18T01:09:39;93410.09;;;-0.83;72.83
45793;BME280;31495;42.740;22.908;2023-03-18T01:10:39;93374.53;;;-1.02;72.60
45793;BME280;31495;42.740;22.908;2023-03-18T01:11:38;93363.56;;;-1.03;72.44
45793;BME280;31495;42.740;22.908;2023-03-18T01:12:38;93386.84;;;-0.88;72.04
45793;BME280;31495;42.740;22.908;2023-03-18T01:13:39;93407.81;;;-0.76;71.84
45793;BME280;31495;42.740;22.908;2023-03-18T01:14:39;93394.59;;;-0.89;71.56
45793;BME280;31495;42.740;22.908;2023-03-18T01:15:40;93364.63;;;-1.15;71.81
45793;BME280;31495;42.740;22.908;2023-03-18T01:16:41;93368.25;;;-1.18;71.85
45793;BME280;31495;42.740;22.908;2023-03-18T01:17:40;93386.69;;;-1.06;71.94
45793;BME280;31495;42.740;22.908;2023-03-18T01:18:41;93366.75;;;-1.20;72.20
45793;BME280;31495;42.740;22.908;2023-03-18T01:19:40;93363.16;;;-1.27;72.39
45793;BME280;31495;42.740;22.908;2023-03-18T01:20:41;93403.38;;;-1.03;72.26
45793;BME280;31495;42.740;22.908;2023-03-18T01:21:42;93364.88;;;-1.28;71.90
45793;BME280;31495;42.740;22.908;2023-03-18T01:22:42;93379.88;;;-1.15;72.06
45793;BME280;31495;42.740;22.908;2023-03-18T01:23:43;93381.88;;;-1.09;72.03
45793;BME280;31495;42.740;22.908;2023-03-18T01:24:43;93357.00;;;-1.25;72.17
45793;BME280;31495;42.740;22.908;2023-03-18T01:25:44;93398.59;;;-0.97;72.48
45793;BME280;31495;42.740;22.908;2023-03-18T01:26:43;93371.47;;;-1.06;71.97
45793;BME280;31495;42.740;22.908;2023-03-18T01:27:43;93403.13;;;-0.81;71.92
45793;BME280;31495;42.740;22.908;2023-03-18T01:28:43;93365.59;;;-1.06;71.80
45793;BME280;31495;42.740;22.908;2023-03-18T01:29:43;93384.16;;;-0.96;71.99
45793;BME280;31495;42.740;22.908;2023-03-18T01:30:44;93336.56;;;-1.23;72.22
45793;BME280;31495;42.740;22.908;2023-03-18T01:31:44;93388.03;;;-0.92;72.58
45793;BME280;31495;42.740;22.908;2023-03-18T01:32:43;93395.25;;;-0.87;72.64
45793;BME280;31495;42.740;22.908;2023-03-18T01:33:43;93355.03;;;-1.21;72.33
45793;BME280;31495;42.740;22.908;2023-03-18T01:34:43;93367.69;;;-1.12;72.13
45793;BME280;31495;42.740;22.908;2023-03-18T01:35:43;93398.19;;;-1.02;72.35
45793;BME280;31495;42.740;22.908;2023-03-18T01:36:45;93360.78;;;-1.19;71.99
45793;BME280;31495;42.740;22.908;2023-03-18T01:37:44;93374.91;;;-1.17;72.30
45793;BME280;31495;42.740;22.908;2023-03-18T01:38:44;93402.88;;;-0.97;72.28
45793;BME280;31495;42.740;22.908;2023-03-18T01:39:44;93399.53;;;-0.98;72.63
45793;BME280;31495;42.740;22.908;2023-03-18T01:40:43;93400.47;;;-0.99;72.66
45793;BME280;31495;42.740;22.908;2023-03-18T01:41:44;93340.56;;;-1.40;72.64
45793;BME280;31495;42.740;22.908;2023-03-18T01:42:47;93377.84;;;-1.12;72.29
45793;BME280;31495;42.740;22.908;2023-03-18T01:43:52;93398.59;;;-0.97;72.51
45793;BME280;31495;42.740;22.908;2023-03-18T01:45:30;93355.81;;;-1.21;72.45
45793;BME280;31495;42.740;22.908;2023-03-18T01:46:40;93391.66;;;-0.95;72.22
45793;BME280;31495;42.740;22.908;2023-03-18T01:47:41;93399.41;;;-0.96;72.11
45793;BME280;31495;42.740;22.908;2023-03-18T01:48:42;93352.06;;;-1.26;71.98
45793;BME280;31495;42.740;22.908;2023-03-18T01:49:47;93331.47;;;-1.33;71.86
45793;BME280;31495;42.740;22.908;2023-03-18T01:50:51;93395.78;;;-0.94;71.87
45793;BME280;31495;42.740;22.908;2023-03-18T01:52:09;93362.47;;;-1.20;71.95
45793;BME280;31495;42.740;22.908;2023-03-18T01:53:13;93341.38;;;-1.30;72.16
45793;BME280;31495;42.740;22.908;2023-03-18T01:54:14;93388.16;;;-1.03;72.25
45793;BME280;31495;42.740;22.908;2023-03-18T01:55:19;93344.56;;;-1.38;72.08
45793;BME280;31495;42.740;22.908;2023-03-18T01:56:19;93379.47;;;-1.11;72.24
45793;BME280;31495;42.740;22.908;2023-03-18T01:57:20;93357.56;;;-1.31;72.13
45793;BME280;31495;42.740;22.908;2023-03-18T01:58:26;93386.81;;;-1.17;72.21
45793;BME280;31495;42.740;22.908;2023-03-18T01:59:28;93385.63;;;-1.23;72.79
45793;BME280;31495;42.740;22.908;2023-03-18T02:00:31;93365.69;;;-1.37;72.75
45793;BME280;31495;42.740;22.908;2023-03-18T02:01:57;93370.25;;;-1.31;72.37
45793;BME280;31495;42.740;22.908;2023-03-18T02:03:00;93354.31;;;-1.53;72.80
45793;BME280;31495;42.740;22.908;2023-03-18T02:04:00;93360.72;;;-1.49;73.07
45793;BME280;31495;42.740;22.908;2023-03-18T02:05:03;93327.03;;;-1.80;73.40
45793;BME280;31495;42.740;22.908;2023-03-18T02:06:04;93368.72;;;-1.53;73.31
45793;BME280;31495;42.740;22.908;2023-03-18T02:07:04;93374.47;;;-1.51;72.81
45793;BME280;31495;42.740;22.908;2023-03-18T02:08:06;93375.41;;;-1.52;72.84
45793;BME280;31495;42.740;22.908;2023-03-18T02:09:06;93371.94;;;-1.51;73.00
45793;BME280;31495;42.740;22.908;2023-03-18T02:10:11;93366.06;;;-1.52;73.23
45793;BME280;31495;42.740;22.908;2023-03-18T02:11:12;93328.47;;;-1.77;73.27
45793;BME280;31495;42.740;22.908;2023-03-18T02:12:14;93368.47;;;-1.50;73.30
45793;BME280;31495;42.740;22.908;2023-03-18T02:13:16;93356.44;;;-1.58;72.69
45793;BME280;31495;42.740;22.908;2023-03-18T02:14:19;93354.72;;;-1.57;72.54
45793;BME280;31495;42.740;22.908;2023-03-18T02:15:21;93338.00;;;-1.70;72.88
45793;BME280;31495;42.740;22.908;2023-03-18T02:16:29;93370.09;;;-1.49;72.82
45793;BME280;31495;42.740;22.908;2023-03-18T02:17:35;93371.56;;;-1.46;72.77
45793;BME280;31495;42.740;22.908;2023-03-18T02:18:43;93374.09;;;-1.46;72.44
45793;BME280;31495;42.740;22.908;2023-03-18T02:19:51;93374.47;;;-1.51;72.24
45793;BME280;31495;42.740;22.908;2023-03-18T02:21:24;93372.34;;;-1.46;72.46
45793;BME280;31495;42.740;22.908;2023-03-18T02:23:54;93355.50;;;-1.57;72.71
45793;BME280;31495;42.740;22.908;2023-03-18T02:25:15;93314.72;;;-1.94;72.31
45793;BME280;31495;42.740;22.908;2023-03-18T02:26:29;93369.78;;;-1.65;72.55
45793;BME280;31495;42.740;22.908;2023-03-18T02:27:36;93349.63;;;-1.67;72.23
45793;BME280;31495;42.740;22.908;2023-03-18T02:28:39;93376.34;;;-1.53;72.06
45793;BME280;31495;42.740;22.908;2023-03-18T02:29:41;93335.19;;;-1.76;72.27
45793;BME280;31495;42.740;22.908;2023-03-18T02:30:53;93366.97;;;-1.62;72.28
45793;BME280;31495;42.740;22.908;2023-03-18T02:31:55;93328.19;;;-1.84;72.22
45793;BME280;31495;42.740;22.908;2023-03-18T02:32:56;93313.78;;;-1.93;72.54
45793;BME280;31495;42.740;22.908;2023-03-18T02:33:58;93367.69;;;-1.51;72.27
45793;BME280;31495;42.740;22.908;2023-03-18T02:35:00;93357.13;;;-1.56;72.02
45793;BME280;31495;42.740;22.908;2023-03-18T02:36:05;93363.91;;;-1.56;72.05
45793;BME280;31495;42.740;22.908;2023-03-18T02:37:05;93342.13;;;-1.69;72.09
45793;BME280;31495;42.740;22.908;2023-03-18T02:38:06;93364.31;;;-1.51;72.17
45793;BME280;31495;42.740;22.908;2023-03-18T02:39:06;93372.63;;;-1.49;72.33
45793;BME280;31495;42.740;22.908;2023-03-18T02:40:24;93354.44;;;-1.54;72.28
45793;BME280;31495;42.740;22.908;2023-03-18T02:41:27;93370.22;;;-1.51;72.09
45793;BME280;31495;42.740;22.908;2023-03-18T02:42:31;93360.06;;;-1.60;72.12
45793;BME280;31495;42.740;22.908;2023-03-18T02:43:31;93331.84;;;-1.77;71.78
45793;BME280;31495;42.740;22.908;2023-03-18T02:44:41;93348.94;;;-1.59;71.91
45793;BME280;31495;42.740;22.908;2023-03-18T02:47:08;93367.13;;;-1.54;71.93
45793;BME280;31495;42.740;22.908;2023-03-18T02:48:10;93354.56;;;-1.65;71.95
45793;BME280;31495;42.740;22.908;2023-03-18T02:49:15;93352.00;;;-1.75;72.22
45793;BME280;31495;42.740;22.908;2023-03-18T02:50:15;93370.72;;;-1.67;71.92
45793;BME280;31495;42.740;22.908;2023-03-18T02:51:16;93357.75;;;-1.73;72.17
45793;BME280;31495;42.740;22.908;2023-03-18T02:52:16;93358.00;;;-1.76;72.30
45793;BME280;31495;42.740;22.908;2023-03-18T02:53:16;93319.63;;;-2.03;72.12
45793;BME280;31495;42.740;22.908;2023-03-18T02:54:22;93335.28;;;-1.88;72.17
45793;BME280;31495;42.740;22.908;2023-03-18T02:55:22;93325.78;;;-1.86;72.17
45793;BME280;31495;42.740;22.908;2023-03-18T02:56:21;93374.59;;;-1.62;71.71
45793;BME280;31495;42.740;22.908;2023-03-18T02:57:21;93366.31;;;-1.64;71.41
45793;BME280;31495;42.740;22.908;2023-03-18T02:58:21;93296.66;;;-2.11;71.27
45793;BME280;31495;42.740;22.908;2023-03-18T02:59:21;93307.88;;;-2.04;71.37
45793;BME280;31495;42.740;22.908;2023-03-18T03:00:21;93368.59;;;-1.61;71.38
45793;BME280;31495;42.740;22.908;2023-03-18T03:01:20;93346.81;;;-1.74;71.28
45793;BME280;31495;42.740;22.908;2023-03-18T03:02:20;93355.38;;;-1.65;71.19
45793;BME280;31495;42.740;22.908;2023-03-18T03:03:20;93335.31;;;-1.78;71.37
45793;BME280;31495;42.740;22.908;2023-03-18T03:04:22;93367.13;;;-1.54;71.49
45793;BME280;31495;42.740;22.908;2023-03-18T03:05:22;93357.38;;;-1.69;71.16
45793;BME280;31495;42.740;22.908;2023-03-18T03:06:22;93367.53;;;-1.59;71.28
45793;BME280;31495;42.740;22.908;2023-03-18T03:07:26;93369.13;;;-1.58;71.40
45793;BME280;31495;42.740;22.908;2023-03-18T03:08:26;93357.22;;;-1.67;71.06
45793;BME280;31495;42.740;22.908;2023-03-18T03:09:26;93375.00;;;-1.57;71.23
45793;BME280;31495;42.740;22.908;2023-03-18T03:10:27;93348.13;;;-1.79;71.31
45793;BME280;31495;42.740;22.908;2023-03-18T03:11:27;93366.56;;;-1.68;71.29
45793;BME280;31495;42.740;22.908;2023-03-18T03:12:26;93365.75;;;-1.78;71.43
45793;BME280;31495;42.740;22.908;2023-03-18T03:13:27;93350.22;;;-1.94;71.49
45793;BME280;31495;42.740;22.908;2023-03-18T03:14:26;93377.88;;;-1.81;71.86
45793;BME280;31495;42.740;22.908;2023-03-18T03:15:25;93342.72;;;-1.96;72.02
45793;BME280;31495;42.740;22.908;2023-03-18T03:16:26;93306.91;;;-2.12;71.80
45793;BME280;31495;42.740;22.908;2023-03-18T03:17:26;93383.00;;;-1.72;71.86
45793;BME280;31495;42.740;22.908;2023-03-18T03:18:26;93335.00;;;-1.94;71.19
45793;BME280;31495;42.740;22.908;2023-03-18T03:19:26;93376.97;;;-1.71;71.63
45793;BME280;31495;42.740;22.908;2023-03-18T03:20:26;93344.22;;;-1.93;71.41
45793;BME280;31495;42.740;22.908;2023-03-18T03:21:26;93356.09;;;-1.84;71.42
45793;BME280;31495;42.740;22.908;2023-03-18T03:22:26;93373.38;;;-1.68;71.41
45793;BME280;31495;42.740;22.908;2023-03-18T03:23:26;93358.66;;;-1.74;71.68
45793;BME280;31495;42.740;22.908;2023-03-18T03:24:26;93369.66;;;-1.64;71.48
45793;BME280;31495;42.740;22.908;2023-03-18T03:25:26;93363.09;;;-1.67;71.29
45793;BME280;31495;42.740;22.908;2023-03-18T03:26:26;93343.28;;;-1.82;71.30
45793;BME280;31495;42.740;22.908;2023-03-18T03:27:28;93366.72;;;-1.59;70.78
45793;BME280;31495;42.740;22.908;2023-03-18T03:28:29;93327.13;;;-1.91;71.16
45793;BME280;31495;42.740;22.908;2023-03-18T03:29:30;93328.06;;;-1.92;70.98
45793;BME280;31495;42.740;22.908;2023-03-18T03:30:30;93307.47;;;-2.09;70.88
45793;BME280;31495;42.740;22.908;2023-03-18T03:31:30;93345.97;;;-1.84;71.08
45793;BME280;31495;42.740;22.908;2023-03-18T03:32:29;93356.50;;;-1.79;71.36
45793;BME280;31495;42.740;22.908;2023-03-18T03:33:30;93354.81;;;-1.78;71.19
45793;BME280;31495;42.740;22.908;2023-03-18T03:34:30;93320.03;;;-1.97;71.12
45793;BME280;31495;42.740;22.908;2023-03-18T03:35:29;93363.22;;;-1.68;71.48
45793;BME280;31495;42.740;22.908;2023-03-18T03:36:29;93342.50;;;-1.83;71.33
45793;BME280;31495;42.740;22.908;2023-03-18T03:37:29;93357.34;;;-1.78;71.45
45793;BME280;31495;42.740;22.908;2023-03-18T03:38:28;93356.94;;;-1.83;71.77
45793;BME280;31495;42.740;22.908;2023-03-18T03:39:27;93374.88;;;-1.65;71.55
45793;BME280;31495;42.740;22.908;2023-03-18T03:40:27;93371.13;;;-1.61;71.23
45793;BME280;31495;42.740;22.908;2023-03-18T03:41:27;93377.41;;;-1.65;71.00
45793;BME280;31495;42.740;22.908;2023-03-18T03:42:26;93381.53;;;-1.64;70.99
45793;BME280;31495;42.740;22.908;2023-03-18T03:43:26;93377.41;;;-1.65;71.28
45793;BME280;31495;42.740;22.908;2023-03-18T03:44:26;93376.59;;;-1.66;71.17
45793;BME280;31495;42.740;22.908;2023-03-18T03:45:25;93377.28;;;-1.64;71.08
45793;BME280;31495;42.740;22.908;2023-03-18T03:46:25;93342.75;;;-1.86;70.90
45793;BME280;31495;42.740;22.908;2023-03-18T03:47:25;93359.88;;;-1.78;71.18
45793;BME280;31495;42.740;22.908;2023-03-18T03:48:25;93372.31;;;-1.75;70.90
45793;BME280;31495;42.740;22.908;2023-03-18T03:49:24;93376.16;;;-1.71;71.05
45793;BME280;31495;42.740;22.908;2023-03-18T03:50:24;93360.63;;;-1.88;70.95
45793;BME280;31495;42.740;22.908;2023-03-18T03:51:24;93383.25;;;-1.75;71.30
45793;BME280;31495;42.740;22.908;2023-03-18T03:52:23;93381.63;;;-1.76;71.16
45793;BME280;31495;42.740;22.908;2023-03-18T03:53:23;93366.66;;;-1.79;70.88
45793;BME280;31495;42.740;22.908;2023-03-18T03:54:24;93343.66;;;-1.97;70.46
45793;BME280;31495;42.740;22.908;2023-03-18T03:55:25;93332.31;;;-2.03;70.34
45793;BME280;31495;42.740;22.908;2023-03-18T03:56:24;93316.91;;;-2.20;70.43
45793;BME280;31495;42.740;22.908;2023-03-18T03:57:23;93390.31;;;-1.78;70.48
45793;BME280;31495;42.740;22.908;2023-03-18T03:58:23;93364.78;;;-1.87;70.46
45793;BME280;31495;42.740;22.908;2023-03-18T03:59:22;93346.31;;;-1.98;70.16
45793;BME280;31495;42.740;22.908;2023-03-18T04:00:22;93375.34;;;-1.81;70.70
45793;BME280;31495;42.740;22.908;2023-03-18T04:01:22;93321.84;;;-2.19;70.67
45793;BME280;31495;42.740;22.908;2023-03-18T04:02:22;93378.13;;;-1.85;71.06
45793;BME280;31495;42.740;22.908;2023-03-18T04:03:22;93380.00;;;-1.87;71.27
45793;BME280;31495;42.740;22.908;2023-03-18T04:04:22;93339.91;;;-2.03;71.20
45793;BME280;31495;42.740;22.908;2023-03-18T04:05:23;93381.09;;;-1.79;71.37
45793;BME280;31495;42.740;22.908;2023-03-18T04:06:23;93381.22;;;-1.81;71.38
45793;BME280;31495;42.740;22.908;2023-03-18T04:07:22;93380.13;;;-1.88;71.43
45793;BME280;31495;42.740;22.908;2023-03-18T04:08:22;93356.19;;;-1.95;71.25
45793;BME280;31495;42.740;22.908;2023-03-18T04:09:21;93376.53;;;-1.86;71.63
45793;BME280;31495;42.740;22.908;2023-03-18T04:10:21;93344.03;;;-2.11;71.23
45793;BME280;31495;42.740;22.908;2023-03-18T04:11:21;93369.31;;;-1.90;70.45
45793;BME280;31495;42.740;22.908;2023-03-18T04:12:21;93306.97;;;-2.33;70.95
45793;BME280;31495;42.740;22.908;2023-03-18T04:13:20;93384.94;;;-1.85;70.68
45793;BME280;31495;42.740;22.908;2023-03-18T04:14:19;93328.22;;;-2.25;71.00
45793;BME280;31495;42.740;22.908;2023-03-18T04:15:20;93369.00;;;-1.97;70.66
45793;BME280;31495;42.740;22.908;2023-03-18T04:16:20;93337.59;;;-2.15;70.45
45793;BME280;31495;42.740;22.908;2023-03-18T04:17:19;93357.00;;;-2.05;70.41
45793;BME280;31495;42.740;22.908;2023-03-18T04:18:19;93349.88;;;-2.11;70.50
45793;BME280;31495;42.740;22.908;2023-03-18T04:19:20;93352.72;;;-2.04;70.27
45793;BME280;31495;42.740;22.908;2023-03-18T04:20:20;93359.91;;;-2.09;69.91
45793;BME280;31495;42.740;22.908;2023-03-18T04:21:20;93387.56;;;-1.96;70.47
45793;BME280;31495;42.740;22.908;2023-03-18T04:22:19;93370.72;;;-2.07;70.57
45793;BME280;31495;42.740;22.908;2023-03-18T04:23:20;93382.34;;;-2.05;70.85
45793;BME280;31495;42.740;22.908;2023-03-18T04:24:20;93355.47;;;-2.17;71.36
45793;BME280;31495;42.740;22.908;2023-03-18T04:25:19;93387.19;;;-1.92;70.84
45793;BME280;31495;42.740;22.908;2023-03-18T04:26:20;93392.53;;;-1.95;70.89
45793;BME280;31495;42.740;22.908;2023-03-18T04:27:19;93357.13;;;-2.06;70.26
45793;BME280;31495;42.740;22.908;2023-03-18T04:28:18;93364.47;;;-2.03;70.42
45793;BME280;31495;42.740;22.908;2023-03-18T04:29:18;93368.72;;;-2.04;70.66
45793;BME280;31495;42.740;22.908;2023-03-18T04:30:17;93380.75;;;-1.96;70.32
45793;BME280;31495;42.740;22.908;2023-03-18T04:31:18;93362.03;;;-2.14;70.23
45793;BME280;31495;42.740;22.908;2023-03-18T04:32:18;93381.81;;;-1.98;70.52
45793;BME280;31495;42.740;22.908;2023-03-18T04:33:17;93381.06;;;-1.89;70.50
45793;BME280;31495;42.740;22.908;2023-03-18T04:34:17;93332.78;;;-2.18;70.24
45793;BME280;31495;42.740;22.908;2023-03-18T04:35:17;93334.75;;;-2.22;70.37
45793;BME280;31495;42.740;22.908;2023-03-18T04:36:17;93353.34;;;-2.12;70.05
45793;BME280;31495;42.740;22.908;2023-03-18T04:37:16;93376.50;;;-1.95;70.36
45793;BME280;31495;42.740;22.908;2023-03-18T04:38:18;93363.41;;;-2.00;70.34
45793;BME280;31495;42.740;22.908;2023-03-18T04:39:18;93364.19;;;-2.10;70.63
45793;BME280;31495;42.740;22.908;2023-03-18T04:40:18;93391.63;;;-1.84;70.80
45793;BME280;31495;42.740;22.908;2023-03-18T04:41:18;93366.31;;;-2.05;70.47
45793;BME280;31495;42.740;22.908;2023-03-18T04:42:17;93372.06;;;-2.03;70.84
45793;BME280;31495;42.740;22.908;2023-03-18T04:43:17;93400.72;;;-1.81;70.35
45793;BME280;31495;42.740;22.908;2023-03-18T04:44:16;93360.44;;;-2.06;70.51
45793;BME280;31495;42.740;22.908;2023-03-18T04:45:16;93395.47;;;-1.90;70.89
45793;BME280;31495;42.740;22.908;2023-03-18T04:46:16;93360.13;;;-2.22;71.16
45793;BME280;31495;42.740;22.908;2023-03-18T04:47:16;93384.34;;;-1.98;70.94
45793;BME280;31495;42.740;22.908;2023-03-18T04:48:16;93392.28;;;-1.92;71.10
45793;BME280;31495;42.740;22.908;2023-03-18T04:49:15;93335.63;;;-2.33;71.26
45793;BME280;31495;42.740;22.908;2023-03-18T04:50:14;93389.56;;;-2.00;71.08
45793;BME280;31495;42.740;22.908;2023-03-18T04:51:14;93402.13;;;-1.89;71.21
45793;BME280;31495;42.740;22.908;2023-03-18T04:52:14;93369.41;;;-2.01;70.93
45793;BME280;31495;42.740;22.908;2023-03-18T04:53:15;93400.44;;;-1.88;71.10
45793;BME280;31495;42.740;22.908;2023-03-18T04:54:15;93398.25;;;-1.93;71.14
45793;BME280;31495;42.740;22.908;2023-03-18T04:55:15;93372.72;;;-2.11;70.85
45793;BME280;31495;42.740;22.908;2023-03-18T04:56:16;93381.16;;;-2.00;70.81
45793;BME280;31495;42.740;22.908;2023-03-18T04:57:16;93392.78;;;-1.98;71.14
45793;BME280;31495;42.740;22.908;2023-03-18T04:58:16;93400.56;;;-1.90;71.04
45793;BME280;31495;42.740;22.908;2023-03-18T04:59:16;93400.13;;;-1.95;70.66
45793;BME280;31495;42.740;22.908;2023-03-18T05:00:18;93411.53;;;-1.79;70.53
45793;BME280;31495;42.740;22.908;2023-03-18T05:01:20;93363.91;;;-2.07;70.06
45793;BME280;31495;42.740;22.908;2023-03-18T05:02:20;93381.16;;;-2.00;69.99
45793;BME280;31495;42.740;22.908;2023-03-18T05:03:19;93387.56;;;-1.96;70.45
45793;BME280;31495;42.740;22.908;2023-03-18T05:04:19;93382.63;;;-1.98;70.62
45793;BME280;31495;42.740;22.908;2023-03-18T05:05:18;93422.72;;;-1.92;71.05
45793;BME280;31495;42.740;22.908;2023-03-18T05:06:23;93426.56;;;-1.88;71.05
45793;BME280;31495;42.740;22.908;2023-03-18T05:07:23;93426.28;;;-1.94;70.65
45793;BME280;31495;42.740;22.908;2023-03-18T05:08:22;93367.31;;;-2.48;71.35
45793;BME280;31495;42.740;22.908;2023-03-18T05:09:22;93403.38;;;-2.14;71.61
45793;BME280;31495;42.740;22.908;2023-03-18T05:10:22;93419.31;;;-2.02;71.16
45793;BME280;31495;42.740;22.908;2023-03-18T05:11:22;93434.16;;;-1.97;71.28
45793;BME280;31495;42.740;22.908;2023-03-18T05:12:22;93428.16;;;-1.96;70.97
45793;BME280;31495;42.740;22.908;2023-03-18T05:13:21;93384.00;;;-2.25;71.26
45793;BME280;31495;42.740;22.908;2023-03-18T05:14:22;93432.72;;;-1.90;71.10
45793;BME280;31495;42.740;22.908;2023-03-18T05:15:21;93421.88;;;-1.92;70.76
45793;BME280;31495;42.740;22.908;2023-03-18T05:16:21;93433.69;;;-1.81;70.46
45793;BME280;31495;42.740;22.908;2023-03-18T05:17:21;93414.81;;;-1.89;70.58
45793;BME280;31495;42.740;22.908;2023-03-18T05:18:21;93408.28;;;-1.91;70.55
45793;BME280;31495;42.740;22.908;2023-03-18T05:19:20;93401.06;;;-1.96;70.32
45793;BME280;31495;42.740;22.908;2023-03-18T05:20:20;93421.72;;;-1.70;70.15
45793;BME280;31495;42.740;22.908;2023-03-18T05:21:20;93435.63;;;-1.64;69.94
45793;BME280;31495;42.740;22.908;2023-03-18T05:22:20;93432.41;;;-1.66;69.78
45793;BME280;31495;42.740;22.908;2023-03-18T05:23:20;93418.88;;;-1.76;70.17